createdAt,value
2016-11-15T00:00:10.391Z,0
2016-11-15T00:01:19.020Z,0
2016-11-15T00:02:27.659Z,0
2016-11-15T00:03:36.265Z,0
2016-11-15T00:04:44.852Z,0
2016-11-15T00:05:53.448Z,0
2016-11-15T00:07:02.067Z,0
2016-11-15T00:08:10.670Z,0
2016-11-15T00:09:19.291Z,0
2016-11-15T00:10:27.962Z,0
2016-11-15T00:11:36.560Z,0
2016-11-15T00:12:45.200Z,0
2016-11-15T00:13:53.796Z,0
2016-11-15T00:15:02.421Z,0
2016-11-15T00:16:11.043Z,0
2016-11-15T00:17:19.651Z,0
2016-11-15T00:18:28.280Z,0
2016-11-15T00:19:36.880Z,0
2016-11-15T00:20:45.514Z,0
2016-11-15T00:21:54.118Z,0
2016-11-15T00:23:02.719Z,0
2016-11-15T00:24:11.316Z,0
2016-11-15T00:25:19.973Z,0
2016-11-15T00:26:28.581Z,0
2016-11-15T00:27:37.240Z,0
2016-11-15T00:28:45.845Z,0
2016-11-15T00:29:54.442Z,0
2016-11-15T00:31:03.066Z,0
2016-11-15T00:32:11.676Z,0
2016-11-15T00:33:20.313Z,0
2016-11-15T00:34:28.926Z,0
2016-11-15T00:35:37.543Z,0
2016-11-15T00:36:46.142Z,0
2016-11-15T00:37:54.739Z,0
2016-11-15T00:39:03.341Z,0
2016-11-15T00:40:11.956Z,0
2016-11-15T00:41:20.552Z,0
2016-11-15T00:42:29.148Z,0
2016-11-15T00:43:37.767Z,0
2016-11-15T00:44:46.367Z,0
2016-11-15T00:45:54.984Z,0
2016-11-15T00:47:03.600Z,0
2016-11-15T00:48:12.234Z,0
2016-11-15T00:49:20.832Z,0
2016-11-15T00:50:29.469Z,0
2016-11-15T00:51:38.067Z,0
2016-11-15T00:52:46.669Z,0
2016-11-15T00:53:55.289Z,0
2016-11-15T00:55:03.953Z,0
2016-11-15T00:56:12.595Z,0
2016-11-15T00:57:21.220Z,0
2016-11-15T00:58:29.824Z,0
2016-11-15T00:59:38.434Z,0
2016-11-15T01:00:47.037Z,0
2016-11-15T01:01:55.638Z,0
2016-11-15T01:03:04.277Z,0
2016-11-15T01:04:12.875Z,0
2016-11-15T01:05:21.476Z,0
2016-11-15T01:06:30.069Z,0
2016-11-15T01:07:38.673Z,0
2016-11-15T01:08:47.289Z,0
2016-11-15T01:09:55.911Z,0
2016-11-15T01:11:04.527Z,0
2016-11-15T01:12:13.131Z,0
2016-11-15T01:13:21.749Z,0
2016-11-15T01:14:30.373Z,0
2016-11-15T01:15:38.987Z,0
2016-11-15T01:16:47.587Z,0
2016-11-15T01:17:56.183Z,0
2016-11-15T01:19:04.821Z,0
2016-11-15T01:20:13.446Z,0
2016-11-15T01:21:22.059Z,0
2016-11-15T01:22:30.664Z,0
2016-11-15T01:23:39.276Z,0
2016-11-15T01:24:47.910Z,0
2016-11-15T01:25:56.524Z,0
2016-11-15T01:27:05.127Z,0
2016-11-15T01:28:13.749Z,0
2016-11-15T01:29:22.371Z,0
2016-11-15T01:30:30.987Z,0
2016-11-15T01:31:39.582Z,0
2016-11-15T01:32:48.208Z,0
2016-11-15T01:33:56.830Z,0
2016-11-15T01:35:05.422Z,0
2016-11-15T01:36:14.040Z,0
2016-11-15T01:37:22.663Z,0
2016-11-15T01:38:31.263Z,0
2016-11-15T01:39:39.864Z,0
2016-11-15T01:40:48.493Z,0
2016-11-15T01:41:57.130Z,0
2016-11-15T01:43:05.761Z,0
2016-11-15T01:44:14.394Z,0
2016-11-15T01:45:23.028Z,0
2016-11-15T01:46:31.632Z,0
2016-11-15T01:47:40.628Z,0
2016-11-15T01:48:49.241Z,0
2016-11-15T01:49:58.170Z,0
2016-11-15T01:51:06.783Z,0
2016-11-15T01:52:15.387Z,0
2016-11-15T01:53:24.011Z,0
2016-11-15T01:54:32.612Z,0
2016-11-15T01:55:41.205Z,0
2016-11-15T01:56:49.815Z,0
2016-11-15T01:57:58.454Z,0
2016-11-15T01:59:07.081Z,0
2016-11-15T02:00:15.707Z,0
2016-11-15T02:01:24.324Z,0
2016-11-15T02:02:32.970Z,0
2016-11-15T02:03:41.591Z,0
2016-11-15T02:04:50.217Z,0
2016-11-15T02:05:58.863Z,0
2016-11-15T02:07:07.467Z,0
2016-11-15T02:08:16.106Z,0
2016-11-15T02:09:24.729Z,0
2016-11-15T02:10:33.329Z,0
2016-11-15T02:11:41.952Z,0
2016-11-15T02:12:50.567Z,0
2016-11-15T02:13:59.186Z,0
2016-11-15T02:15:07.787Z,0
2016-11-15T02:16:16.385Z,0
2016-11-15T02:17:25.032Z,0
2016-11-15T02:18:33.652Z,0
2016-11-15T02:19:42.273Z,0
2016-11-15T02:20:50.912Z,0
2016-11-15T02:21:59.529Z,0
2016-11-15T02:23:08.157Z,0
2016-11-15T02:24:17.176Z,0
2016-11-15T02:25:25.804Z,0
2016-11-15T02:26:34.721Z,0
2016-11-15T02:27:43.317Z,0
2016-11-15T02:28:51.930Z,0
2016-11-15T02:30:00.552Z,0
2016-11-15T02:31:09.173Z,0
2016-11-15T02:32:17.778Z,0
2016-11-15T02:33:26.444Z,0
2016-11-15T02:34:35.070Z,0
2016-11-15T02:35:43.675Z,0
2016-11-15T02:36:52.266Z,0
2016-11-15T02:38:00.904Z,0
2016-11-15T02:39:09.508Z,0
2016-11-15T02:40:18.124Z,0
2016-11-15T02:41:26.777Z,0
2016-11-15T02:42:35.397Z,0
2016-11-15T02:43:44.035Z,0
2016-11-15T02:44:52.651Z,0
2016-11-15T02:46:01.264Z,0
2016-11-15T02:47:09.906Z,0
2016-11-15T02:48:18.526Z,0
2016-11-15T02:49:27.122Z,0
2016-11-15T02:50:35.743Z,0
2016-11-15T02:51:44.361Z,0
2016-11-15T02:52:53.006Z,0
2016-11-15T02:54:01.621Z,0
2016-11-15T02:55:10.251Z,0
2016-11-15T02:56:18.867Z,0
2016-11-15T02:57:27.471Z,0
2016-11-15T02:58:36.091Z,0
2016-11-15T02:59:44.730Z,0
2016-11-15T03:00:53.347Z,0
2016-11-15T03:02:01.953Z,0
2016-11-15T03:03:10.571Z,0
2016-11-15T03:04:19.172Z,0
2016-11-15T03:05:27.788Z,0
2016-11-15T03:06:36.385Z,0
2016-11-15T03:07:44.997Z,0
2016-11-15T03:08:53.605Z,0
2016-11-15T03:10:02.197Z,0
2016-11-15T03:11:10.799Z,0
2016-11-15T03:12:19.414Z,0
2016-11-15T03:13:28.058Z,0
2016-11-15T03:14:36.657Z,0
2016-11-15T03:15:45.283Z,0
2016-11-15T03:16:53.899Z,0
2016-11-15T03:18:02.512Z,0
2016-11-15T03:19:11.133Z,0
2016-11-15T03:20:19.755Z,0
2016-11-15T03:21:28.363Z,0
2016-11-15T03:22:36.959Z,0
2016-11-15T03:23:45.554Z,0
2016-11-15T03:24:54.171Z,0
2016-11-15T03:26:02.815Z,0
2016-11-15T03:27:11.442Z,0
2016-11-15T03:28:20.063Z,0
2016-11-15T03:29:28.655Z,0
2016-11-15T03:30:37.305Z,0
2016-11-15T03:31:45.927Z,0
2016-11-15T03:32:54.548Z,0
2016-11-15T03:34:03.141Z,0
2016-11-15T03:35:12.078Z,0
2016-11-15T03:36:20.684Z,0
2016-11-15T03:37:29.304Z,0
2016-11-15T03:38:37.928Z,0
2016-11-15T03:39:46.546Z,0
2016-11-15T03:40:55.154Z,0
2016-11-15T03:42:04.087Z,0
2016-11-15T03:43:12.683Z,0
2016-11-15T03:44:21.285Z,0
2016-11-15T03:45:29.909Z,0
2016-11-15T03:46:38.527Z,0
2016-11-15T03:47:47.144Z,0
2016-11-15T03:48:55.749Z,0
2016-11-15T03:50:04.378Z,0
2016-11-15T03:51:12.985Z,0
2016-11-15T03:52:21.600Z,0
2016-11-15T03:53:30.216Z,0
2016-11-15T03:54:39.138Z,0
2016-11-15T03:55:47.746Z,0
2016-11-15T03:56:56.361Z,0
2016-11-15T03:58:04.975Z,0
2016-11-15T03:59:13.583Z,0
2016-11-15T04:00:22.206Z,0
2016-11-15T04:01:30.825Z,0
2016-11-15T04:02:39.447Z,0
2016-11-15T04:03:48.114Z,0
2016-11-15T04:04:56.734Z,0
2016-11-15T04:06:05.386Z,0
2016-11-15T04:07:14.023Z,0
2016-11-15T04:08:22.645Z,0
2016-11-15T04:09:31.251Z,0
2016-11-15T04:10:40.245Z,0
2016-11-15T04:11:48.843Z,0
2016-11-15T04:12:57.462Z,0
2016-11-15T04:14:06.146Z,0
2016-11-15T04:15:14.754Z,0
2016-11-15T04:16:23.375Z,0
2016-11-15T04:17:31.988Z,0
2016-11-15T04:18:40.594Z,0
2016-11-15T04:19:49.209Z,0
2016-11-15T04:20:57.811Z,0
2016-11-15T04:22:06.430Z,0
2016-11-15T04:23:15.072Z,0
2016-11-15T04:24:23.691Z,0
2016-11-15T04:25:32.295Z,0
2016-11-15T04:26:40.911Z,0
2016-11-15T04:27:49.511Z,0
2016-11-15T04:28:58.134Z,0
2016-11-15T04:30:06.730Z,0
2016-11-15T04:31:15.338Z,0
2016-11-15T04:32:23.968Z,0
2016-11-15T04:33:32.564Z,0
2016-11-15T04:34:41.165Z,0
2016-11-15T04:35:49.785Z,0
2016-11-15T04:36:58.405Z,0
2016-11-15T04:38:07.402Z,0
2016-11-15T04:39:16.024Z,0
2016-11-15T04:40:24.639Z,0
2016-11-15T04:41:33.259Z,0
2016-11-15T04:42:41.860Z,0
2016-11-15T04:43:50.459Z,0
2016-11-15T04:44:59.074Z,0
2016-11-15T04:46:07.687Z,0
2016-11-15T04:47:16.291Z,0
2016-11-15T04:48:24.892Z,0
2016-11-15T04:49:33.880Z,0
2016-11-15T04:50:42.496Z,0
2016-11-15T04:51:51.103Z,0
2016-11-15T04:52:59.743Z,0
2016-11-15T04:54:08.364Z,0
2016-11-15T04:55:16.990Z,0
2016-11-15T04:56:25.596Z,0
2016-11-15T04:57:34.206Z,0
2016-11-15T04:58:42.807Z,0
2016-11-15T04:59:51.429Z,0
2016-11-15T05:01:00.050Z,0
2016-11-15T05:02:08.695Z,0
2016-11-15T05:03:17.308Z,0
2016-11-15T05:04:25.913Z,0
2016-11-15T05:05:34.504Z,0
2016-11-15T05:06:43.123Z,0
2016-11-15T05:07:51.751Z,0
2016-11-15T05:09:00.367Z,0
2016-11-15T05:10:08.964Z,0
2016-11-15T05:11:17.591Z,0
2016-11-15T05:12:26.230Z,0
2016-11-15T05:13:34.830Z,0
2016-11-15T05:14:43.430Z,0
2016-11-15T05:15:52.050Z,0
2016-11-15T05:17:00.669Z,0
2016-11-15T05:18:09.304Z,0
2016-11-15T05:19:17.930Z,0
2016-11-15T05:20:26.550Z,0
2016-11-15T05:21:35.149Z,0
2016-11-15T05:22:43.768Z,0
2016-11-15T05:23:52.396Z,0
2016-11-15T05:25:01.017Z,0
2016-11-15T05:26:09.649Z,0
2016-11-15T05:27:18.277Z,0
2016-11-15T05:28:26.877Z,0
2016-11-15T05:29:35.477Z,0
2016-11-15T05:30:44.075Z,0
2016-11-15T05:31:52.692Z,0
2016-11-15T05:33:01.291Z,0
2016-11-15T05:34:09.910Z,0
2016-11-15T05:35:18.520Z,0
2016-11-15T05:36:27.123Z,0
2016-11-15T05:37:35.724Z,0
2016-11-15T05:38:44.345Z,0
2016-11-15T05:39:52.968Z,0
2016-11-15T05:41:01.588Z,0
2016-11-15T05:42:10.225Z,0
2016-11-15T05:43:18.868Z,0
2016-11-15T05:44:27.489Z,0
2016-11-15T05:45:36.097Z,0
2016-11-15T05:46:45.036Z,0
2016-11-15T05:47:53.653Z,0
2016-11-15T05:49:02.273Z,0
2016-11-15T05:50:10.900Z,0
2016-11-15T05:51:19.527Z,0
2016-11-15T05:52:28.166Z,4
2016-11-15T05:53:36.765Z,4
2016-11-15T05:54:45.384Z,0
2016-11-15T05:55:54.059Z,4
2016-11-15T05:57:02.659Z,4
2016-11-15T05:58:11.275Z,4
2016-11-15T05:59:19.878Z,4
2016-11-15T06:00:28.492Z,4
2016-11-15T06:01:37.110Z,8
2016-11-15T06:02:45.735Z,8
2016-11-15T06:03:54.331Z,8
2016-11-15T06:05:02.948Z,12
2016-11-15T06:06:11.553Z,16
2016-11-15T06:07:20.144Z,16
2016-11-15T06:08:28.745Z,20
2016-11-15T06:09:37.385Z,20
2016-11-15T06:10:46.004Z,24
2016-11-15T06:11:54.608Z,28
2016-11-15T06:13:03.241Z,32
2016-11-15T06:14:11.893Z,36
2016-11-15T06:15:20.543Z,44
2016-11-15T06:16:29.167Z,48
2016-11-15T06:17:37.784Z,56
2016-11-15T06:18:46.390Z,64
2016-11-15T06:19:55.006Z,68
2016-11-15T06:21:03.620Z,80
2016-11-15T06:22:12.272Z,88
2016-11-15T06:23:20.868Z,100
2016-11-15T06:24:29.464Z,108
2016-11-15T06:25:38.081Z,120
2016-11-15T06:26:46.678Z,132
2016-11-15T06:27:55.295Z,148
2016-11-15T06:29:03.925Z,172
2016-11-15T06:30:12.541Z,196
2016-11-15T06:31:21.159Z,224
2016-11-15T06:32:29.761Z,252
2016-11-15T06:33:38.372Z,284
2016-11-15T06:34:46.979Z,316
2016-11-15T06:35:55.596Z,348
2016-11-15T06:37:04.202Z,384
2016-11-15T06:38:12.818Z,408
2016-11-15T06:39:21.461Z,424
2016-11-15T06:40:30.073Z,432
2016-11-15T06:41:38.702Z,428
2016-11-15T06:42:47.327Z,432
2016-11-15T06:43:55.948Z,444
2016-11-15T06:45:04.558Z,468
2016-11-15T06:46:13.163Z,496
2016-11-15T06:47:21.787Z,516
2016-11-15T06:48:30.397Z,524
2016-11-15T06:49:39.000Z,528
2016-11-15T06:50:47.613Z,524
2016-11-15T06:51:56.221Z,524
2016-11-15T06:53:04.814Z,524
2016-11-15T06:54:13.419Z,532
2016-11-15T06:55:22.030Z,552
2016-11-15T06:56:30.680Z,592
2016-11-15T06:57:39.314Z,632
2016-11-15T06:58:47.924Z,688
2016-11-15T06:59:56.518Z,748
2016-11-15T07:01:05.139Z,812
2016-11-15T07:02:13.777Z,872
2016-11-15T07:03:22.376Z,928
2016-11-15T07:04:30.977Z,984
2016-11-15T07:05:39.599Z,1040
2016-11-15T07:06:48.214Z,1088
2016-11-15T07:07:56.832Z,1132
2016-11-15T07:09:05.432Z,1180
2016-11-15T07:10:14.060Z,1228
2016-11-15T07:11:22.678Z,1256
2016-11-15T07:12:31.301Z,1244
2016-11-15T07:13:39.937Z,1196
2016-11-15T07:14:48.553Z,1128
2016-11-15T07:15:57.157Z,1084
2016-11-15T07:17:05.775Z,1064
2016-11-15T07:18:14.399Z,1048
2016-11-15T07:19:23.341Z,1032
2016-11-15T07:20:31.968Z,1016
2016-11-15T07:21:40.561Z,1012
2016-11-15T07:22:49.179Z,1036
2016-11-15T07:23:57.779Z,1060
2016-11-15T07:25:06.396Z,1084
2016-11-15T07:26:15.017Z,1116
2016-11-15T07:27:23.616Z,1156
2016-11-15T07:28:32.218Z,1212
2016-11-15T07:29:40.833Z,1288
2016-11-15T07:30:49.431Z,1380
2016-11-15T07:31:58.025Z,1504
2016-11-15T07:33:06.946Z,1660
2016-11-15T07:34:15.592Z,1836
2016-11-15T07:35:24.188Z,2040
2016-11-15T07:36:32.785Z,2284
2016-11-15T07:37:41.384Z,2552
2016-11-15T07:38:49.998Z,2796
2016-11-15T07:39:58.597Z,2984
2016-11-15T07:41:07.220Z,3196
2016-11-15T07:42:15.818Z,3468
2016-11-15T07:43:24.439Z,3740
2016-11-15T07:44:33.062Z,3896
2016-11-15T07:45:41.681Z,3876
2016-11-15T07:46:50.323Z,3696
2016-11-15T07:47:58.920Z,3496
2016-11-15T07:49:07.838Z,3384
2016-11-15T07:50:16.459Z,3340
2016-11-15T07:51:25.088Z,3312
2016-11-15T07:52:33.726Z,3332
2016-11-15T07:53:42.350Z,3388
2016-11-15T07:54:50.964Z,3480
2016-11-15T07:55:59.594Z,3604
2016-11-15T07:57:08.581Z,3764
2016-11-15T07:58:17.185Z,4076
2016-11-15T07:59:26.132Z,4620
2016-11-15T08:00:34.760Z,5300
2016-11-15T08:01:43.692Z,5924
2016-11-15T08:02:52.299Z,6204
2016-11-15T08:04:00.958Z,6344
2016-11-15T08:05:09.561Z,6436
2016-11-15T08:06:18.158Z,6492
2016-11-15T08:07:26.779Z,6408
2016-11-15T08:08:35.392Z,6344
2016-11-15T08:09:44.046Z,6624
2016-11-15T08:10:52.664Z,7124
2016-11-15T08:12:01.264Z,7356
2016-11-15T08:13:09.867Z,7356
2016-11-15T08:14:18.484Z,7172
2016-11-15T08:19:32.364Z,0
2016-11-15T08:20:40.984Z,580
2016-11-15T08:21:49.601Z,460
2016-11-15T08:22:58.205Z,5460
2016-11-15T08:24:06.869Z,5332
2016-11-15T08:25:15.486Z,5344
2016-11-15T08:26:24.119Z,5376
2016-11-15T08:27:32.758Z,5216
2016-11-15T08:28:41.393Z,4948
2016-11-15T08:29:50.032Z,4516
2016-11-15T08:30:58.657Z,4116
2016-11-15T08:32:07.325Z,3936
2016-11-15T08:33:15.971Z,3792
2016-11-15T08:34:24.613Z,3728
2016-11-15T08:35:33.239Z,3848
2016-11-15T08:36:42.207Z,3992
2016-11-15T08:37:50.819Z,4168
2016-11-15T08:38:59.428Z,4284
2016-11-15T08:40:08.073Z,4368
2016-11-15T08:41:16.690Z,4584
2016-11-15T08:42:25.333Z,4780
2016-11-15T08:43:33.963Z,4916
2016-11-15T08:44:42.583Z,5000
2016-11-15T08:45:51.205Z,4996
2016-11-15T08:46:59.821Z,4876
2016-11-15T08:48:08.447Z,4668
2016-11-15T08:49:17.090Z,4604
2016-11-15T08:50:25.714Z,4676
2016-11-15T08:51:34.356Z,4796
2016-11-15T08:52:42.970Z,5148
2016-11-15T08:53:51.567Z,5644
2016-11-15T08:55:05.804Z,6112
2016-11-15T08:56:14.433Z,6344
2016-11-15T08:57:23.090Z,6380
2016-11-15T08:58:31.708Z,6212
2016-11-15T08:59:40.358Z,6008
2016-11-15T09:00:48.980Z,5760
2016-11-15T09:01:57.596Z,5616
2016-11-15T09:03:06.235Z,5616
2016-11-15T09:04:14.863Z,5504
2016-11-15T09:05:23.487Z,5452
2016-11-15T09:06:32.110Z,5292
2016-11-15T09:07:41.031Z,5148
2016-11-15T09:08:49.698Z,5124
2016-11-15T09:09:58.319Z,5000
2016-11-15T09:11:06.940Z,4956
2016-11-15T09:12:15.583Z,4844
2016-11-15T09:13:24.229Z,4580
2016-11-15T09:14:32.858Z,4500
2016-11-15T09:15:41.450Z,4568
2016-11-15T09:16:50.051Z,4648
2016-11-15T09:17:58.685Z,4780
2016-11-15T09:19:07.313Z,5156
2016-11-15T09:20:15.935Z,5696
2016-11-15T09:21:24.560Z,5944
2016-11-15T09:22:33.183Z,5984
2016-11-15T09:23:41.828Z,5776
2016-11-15T09:24:50.448Z,5720
2016-11-15T09:25:59.073Z,6124
2016-11-15T09:27:07.691Z,6872
2016-11-15T09:28:16.308Z,7184
2016-11-15T09:29:24.935Z,7096
2016-11-15T09:30:33.525Z,7516
2016-11-15T09:31:42.180Z,8140
2016-11-15T09:32:51.148Z,7448
2016-11-15T09:33:59.769Z,6596
2016-11-15T09:35:08.389Z,6636
2016-11-15T09:36:17.007Z,6484
2016-11-15T09:37:25.632Z,6308
2016-11-15T09:38:34.296Z,5908
2016-11-15T09:39:42.927Z,5344
2016-11-15T09:40:51.546Z,4924
2016-11-15T09:42:00.634Z,4584
2016-11-15T09:43:09.588Z,4488
2016-11-15T09:44:18.748Z,4444
2016-11-15T09:45:27.376Z,4136
2016-11-15T09:46:35.993Z,3728
2016-11-15T09:47:44.898Z,3552
2016-11-15T09:48:53.514Z,3560
2016-11-15T09:50:02.435Z,3508
2016-11-15T09:51:11.049Z,3404
2016-11-15T09:52:19.660Z,3380
2016-11-15T09:53:28.274Z,3520
2016-11-15T09:54:36.888Z,3720
2016-11-15T09:55:45.500Z,4084
2016-11-15T09:56:54.088Z,4584
2016-11-15T09:58:02.713Z,4824
2016-11-15T09:59:11.334Z,5184
2016-11-15T10:00:19.936Z,5452
2016-11-15T10:01:28.573Z,5192
2016-11-15T10:02:37.172Z,4872
2016-11-15T10:03:45.794Z,4708
2016-11-15T10:04:54.411Z,4596
2016-11-15T10:06:03.026Z,4600
2016-11-15T10:07:11.653Z,4480
2016-11-15T10:08:20.274Z,4340
2016-11-15T10:09:28.917Z,4072
2016-11-15T10:10:37.542Z,3952
2016-11-15T10:11:46.170Z,4032
2016-11-15T10:12:54.818Z,4048
2016-11-15T10:14:03.447Z,4360
2016-11-15T10:15:12.081Z,4784
2016-11-15T10:16:20.721Z,5080
2016-11-15T10:17:29.324Z,4892
2016-11-15T10:18:38.550Z,5416
2016-11-15T10:19:47.192Z,5664
2016-11-15T10:20:56.228Z,5716
2016-11-15T10:22:04.855Z,5112
2016-11-15T10:23:13.476Z,5064
2016-11-15T10:24:22.145Z,4868
2016-11-15T10:25:30.791Z,4488
2016-11-15T10:26:39.412Z,4288
2016-11-15T10:27:48.037Z,4136
2016-11-15T10:28:56.660Z,4556
2016-11-15T10:30:05.280Z,4936
2016-11-15T10:31:13.896Z,5272
2016-11-15T10:32:22.524Z,4996
2016-11-15T10:33:31.118Z,4700
2016-11-15T10:34:39.759Z,4296
2016-11-15T10:35:48.411Z,4160
2016-11-15T10:36:57.008Z,4248
2016-11-15T10:38:05.629Z,4856
2016-11-15T10:39:14.266Z,4552
2016-11-15T10:40:22.907Z,4280
2016-11-15T10:41:31.543Z,4648
2016-11-15T10:42:40.183Z,4324
2016-11-15T10:43:48.808Z,5052
2016-11-15T10:44:57.426Z,5028
2016-11-15T10:46:06.022Z,4516
2016-11-15T10:47:14.636Z,4468
2016-11-15T10:48:23.239Z,4520
2016-11-15T10:49:31.851Z,4508
2016-11-15T10:50:40.481Z,4516
2016-11-15T10:51:49.107Z,4284
2016-11-15T10:52:57.720Z,4036
2016-11-15T10:54:06.348Z,4124
2016-11-15T10:55:14.970Z,3928
2016-11-15T10:56:23.586Z,4064
2016-11-15T10:57:32.212Z,3660
2016-11-15T10:58:40.851Z,3496
2016-11-15T10:59:49.471Z,3652
2016-11-15T11:00:58.101Z,3468
2016-11-15T11:02:06.696Z,3464
2016-11-15T11:03:15.635Z,3040
2016-11-15T11:04:24.281Z,3180
2016-11-15T11:05:32.901Z,3432
2016-11-15T11:06:41.506Z,3208
2016-11-15T11:07:50.130Z,2960
2016-11-15T11:08:58.743Z,2856
2016-11-15T11:10:07.359Z,2836
2016-11-15T11:11:16.285Z,2676
2016-11-15T11:12:24.906Z,2576
2016-11-15T11:13:33.563Z,2512
2016-11-15T11:14:42.198Z,2520
2016-11-15T11:15:50.820Z,2936
2016-11-15T11:16:59.417Z,3004
2016-11-15T11:18:08.015Z,3300
2016-11-15T11:19:16.638Z,2920
2016-11-15T11:20:25.285Z,3464
2016-11-15T11:21:33.919Z,3156
2016-11-15T11:22:42.546Z,3096
2016-11-15T11:23:51.168Z,3148
2016-11-15T11:24:59.793Z,3100
2016-11-15T11:26:08.444Z,3376
2016-11-15T11:27:17.083Z,3656
2016-11-15T11:28:25.682Z,3632
2016-11-15T11:29:34.315Z,3084
2016-11-15T11:30:42.949Z,3416
2016-11-15T11:31:51.569Z,3696
2016-11-15T11:33:00.186Z,3536
2016-11-15T11:34:08.825Z,3328
2016-11-15T11:35:17.433Z,2904
2016-11-15T11:36:26.050Z,3108
2016-11-15T11:37:34.648Z,2984
2016-11-15T11:38:43.267Z,3108
2016-11-15T11:39:51.888Z,3176
2016-11-15T11:41:00.531Z,3232
2016-11-15T11:42:09.130Z,3680
2016-11-15T11:43:17.756Z,3240
2016-11-15T11:44:26.395Z,3504
2016-11-15T11:45:35.019Z,2992
2016-11-15T11:46:43.644Z,2916
2016-11-15T11:47:52.260Z,2912
2016-11-15T11:49:00.862Z,2864
2016-11-15T11:50:09.479Z,2600
2016-11-15T11:51:18.107Z,2452
2016-11-15T11:52:26.724Z,2088
2016-11-15T11:53:35.342Z,2176
2016-11-15T11:54:43.967Z,1944
2016-11-15T11:55:52.601Z,2144
2016-11-15T11:57:01.205Z,1992
2016-11-15T11:58:09.819Z,1784
2016-11-15T11:59:18.426Z,2080
2016-11-15T12:00:27.078Z,2300
2016-11-15T12:01:35.722Z,2204
2016-11-15T12:02:44.340Z,2196
2016-11-15T12:03:52.960Z,2312
2016-11-15T12:05:01.578Z,2292
2016-11-15T12:06:10.203Z,2468
2016-11-15T12:07:18.817Z,2144
2016-11-15T12:08:27.441Z,2508
2016-11-15T12:09:36.050Z,2224
2016-11-15T12:10:44.733Z,2252
2016-11-15T12:11:53.364Z,2016
2016-11-15T12:13:02.031Z,2216
2016-11-15T12:14:10.653Z,2276
2016-11-15T12:15:19.268Z,2240
2016-11-15T12:16:27.894Z,2476
2016-11-15T12:17:36.540Z,2488
2016-11-15T12:18:45.181Z,2772
2016-11-15T12:19:53.830Z,2568
2016-11-15T12:21:02.479Z,2476
2016-11-15T12:22:11.099Z,2400
2016-11-15T12:23:19.740Z,2492
2016-11-15T12:24:28.363Z,2584
2016-11-15T12:25:36.962Z,2420
2016-11-15T12:26:45.579Z,2172
2016-11-15T12:27:54.205Z,2220
2016-11-15T12:29:02.822Z,2400
2016-11-15T12:30:11.448Z,2304
2016-11-15T12:31:20.081Z,2312
2016-11-15T12:32:28.720Z,2180
2016-11-15T12:33:37.353Z,2180
2016-11-15T12:34:45.956Z,2020
2016-11-15T12:35:54.594Z,1852
2016-11-15T12:37:03.198Z,1920
2016-11-15T12:38:11.798Z,1808
2016-11-15T12:39:20.415Z,1704
2016-11-15T12:40:29.029Z,1840
2016-11-15T12:41:37.653Z,1728
2016-11-15T12:42:46.274Z,1744
2016-11-15T12:43:54.893Z,1520
2016-11-15T12:45:03.518Z,1704
2016-11-15T12:46:12.113Z,1556
2016-11-15T12:47:20.763Z,1548
2016-11-15T12:48:29.380Z,1552
2016-11-15T12:49:37.999Z,1508
2016-11-15T12:50:46.625Z,1648
2016-11-15T12:51:55.235Z,1532
2016-11-15T12:53:03.840Z,1584
2016-11-15T12:54:12.461Z,1484
2016-11-15T12:55:21.086Z,1592
2016-11-15T12:56:29.708Z,1660
2016-11-15T12:57:38.331Z,1644
2016-11-15T12:58:46.924Z,1812
2016-11-15T12:59:55.542Z,2012
2016-11-15T13:01:04.168Z,1776
2016-11-15T13:02:12.781Z,1956
2016-11-15T13:03:21.409Z,2000
2016-11-15T13:04:30.007Z,1992
2016-11-15T13:05:38.627Z,2072
2016-11-15T13:06:47.265Z,1940
2016-11-15T13:07:55.889Z,2112
2016-11-15T13:09:04.485Z,2148
2016-11-15T13:10:13.116Z,2136
2016-11-15T13:11:21.756Z,2260
2016-11-15T13:12:30.374Z,2040
2016-11-15T13:13:38.992Z,2264
2016-11-15T13:14:47.616Z,1956
2016-11-15T13:15:56.279Z,2156
2016-11-15T13:17:04.887Z,2328
2016-11-15T13:18:13.504Z,2244
2016-11-15T13:19:22.129Z,2248
2016-11-15T13:20:30.751Z,1928
2016-11-15T13:21:39.389Z,2128
2016-11-15T13:22:47.988Z,2080
2016-11-15T13:23:56.610Z,2312
2016-11-15T13:25:05.228Z,2472
2016-11-15T13:26:14.155Z,2360
2016-11-15T13:27:22.778Z,2316
2016-11-15T13:28:31.394Z,2308
2016-11-15T13:29:40.021Z,2268
2016-11-15T13:30:48.658Z,2244
2016-11-15T13:31:57.287Z,2092
2016-11-15T13:33:05.921Z,1952
2016-11-15T13:34:14.556Z,1940
2016-11-15T13:35:23.475Z,1936
2016-11-15T13:36:32.092Z,1932
2016-11-15T13:37:40.746Z,1644
2016-11-15T13:38:49.376Z,1652
2016-11-15T13:39:58.005Z,1568
2016-11-15T13:41:06.606Z,1536
2016-11-15T13:42:15.248Z,1648
2016-11-15T13:43:23.874Z,1552
2016-11-15T13:44:32.495Z,1592
2016-11-15T13:45:41.133Z,1572
2016-11-15T13:46:49.743Z,1528
2016-11-15T13:47:58.378Z,1472
2016-11-15T13:49:06.975Z,1740
2016-11-15T13:50:15.602Z,1372
2016-11-15T13:51:24.217Z,1428
2016-11-15T13:52:32.842Z,1444
2016-11-15T13:53:41.465Z,1412
2016-11-15T13:54:50.060Z,1308
2016-11-15T13:55:58.655Z,1384
2016-11-15T13:57:07.295Z,1312
2016-11-15T13:58:15.899Z,1116
2016-11-15T13:59:24.531Z,984
2016-11-15T14:00:33.170Z,996
2016-11-15T14:01:41.837Z,892
2016-11-15T14:02:50.460Z,928
2016-11-15T14:03:59.075Z,876
2016-11-15T14:05:07.699Z,840
2016-11-15T14:06:16.318Z,780
2016-11-15T14:07:24.937Z,744
2016-11-15T14:08:33.533Z,848
2016-11-15T14:09:42.172Z,824
2016-11-15T14:10:50.831Z,904
2016-11-15T14:11:59.477Z,976
2016-11-15T14:13:08.101Z,968
2016-11-15T14:14:16.743Z,964
2016-11-15T14:15:25.352Z,1084
2016-11-15T14:16:33.957Z,1204
2016-11-15T14:17:42.582Z,996
2016-11-15T14:18:51.203Z,1124
2016-11-15T14:19:59.822Z,1184
2016-11-15T14:21:08.442Z,1180
2016-11-15T14:22:17.056Z,1276
2016-11-15T14:23:25.676Z,1136
2016-11-15T14:24:34.305Z,960
2016-11-15T14:25:42.901Z,964
2016-11-15T14:26:51.521Z,1140
2016-11-15T14:28:00.149Z,1044
2016-11-15T14:29:08.764Z,912
2016-11-15T14:30:17.405Z,724
2016-11-15T14:31:26.024Z,792
2016-11-15T14:32:35.006Z,688
2016-11-15T14:33:43.624Z,728
2016-11-15T14:34:52.244Z,636
2016-11-15T14:36:00.847Z,576
2016-11-15T14:37:09.795Z,548
2016-11-15T14:38:18.412Z,536
2016-11-15T14:39:27.351Z,532
2016-11-15T14:40:36.029Z,480
2016-11-15T14:41:44.646Z,364
2016-11-15T14:42:53.273Z,360
2016-11-15T14:44:01.895Z,400
2016-11-15T14:45:10.514Z,424
2016-11-15T14:46:19.461Z,440
2016-11-15T14:47:28.123Z,376
2016-11-15T14:48:36.749Z,316
2016-11-15T14:49:45.375Z,316
2016-11-15T14:50:54.008Z,320
2016-11-15T14:52:02.641Z,348
2016-11-15T14:53:11.289Z,324
2016-11-15T14:54:19.904Z,236
2016-11-15T14:55:28.518Z,252
2016-11-15T14:56:37.147Z,300
2016-11-15T14:57:45.743Z,276
2016-11-15T14:58:54.367Z,268
2016-11-15T15:00:02.985Z,196
2016-11-15T15:01:11.605Z,176
2016-11-15T15:02:20.220Z,184
2016-11-15T15:03:28.830Z,212
2016-11-15T15:04:37.474Z,184
2016-11-15T15:05:46.116Z,156
2016-11-15T15:06:54.790Z,156
2016-11-15T15:08:03.432Z,140
2016-11-15T15:09:12.059Z,124
2016-11-15T15:10:20.705Z,136
2016-11-15T15:11:29.326Z,116
2016-11-15T15:12:37.942Z,104
2016-11-15T15:13:46.556Z,104
2016-11-15T15:14:55.176Z,100
2016-11-15T15:16:03.784Z,92
2016-11-15T15:17:12.405Z,84
2016-11-15T15:18:21.323Z,68
2016-11-15T15:19:29.926Z,56
2016-11-15T15:20:38.569Z,52
2016-11-15T15:21:47.186Z,44
2016-11-15T15:22:55.804Z,36
2016-11-15T15:24:04.403Z,36
2016-11-15T15:25:13.024Z,32
2016-11-15T15:26:21.653Z,24
2016-11-15T15:27:30.288Z,24
2016-11-15T15:28:38.894Z,20
2016-11-15T15:29:47.581Z,16
2016-11-15T15:30:56.209Z,16
2016-11-15T15:32:04.854Z,12
2016-11-15T15:33:13.477Z,8
2016-11-15T15:34:22.093Z,8
2016-11-15T15:35:30.723Z,8
2016-11-15T15:36:39.346Z,8
2016-11-15T15:37:48.287Z,4
2016-11-15T15:38:56.925Z,8
2016-11-15T15:40:05.546Z,4
2016-11-15T15:41:14.151Z,4
2016-11-15T15:42:22.758Z,0
2016-11-15T15:43:31.391Z,4
2016-11-15T15:44:39.988Z,4
2016-11-15T15:45:48.631Z,4
2016-11-15T15:46:57.251Z,4
2016-11-15T15:48:05.853Z,0
2016-11-15T15:49:14.892Z,0
2016-11-15T15:50:23.522Z,0
2016-11-15T15:51:32.138Z,0
2016-11-15T15:52:40.805Z,0
2016-11-15T15:53:49.423Z,0
2016-11-15T15:54:58.045Z,0
2016-11-15T15:56:06.650Z,0
2016-11-15T15:57:15.295Z,0
2016-11-15T15:58:23.914Z,0
2016-11-15T15:59:32.539Z,0
2016-11-15T16:00:41.182Z,0
2016-11-15T16:01:49.803Z,0
2016-11-15T16:02:58.445Z,0